Details From VTSB - Surat Thani
To VTSP - Phuket Intl
Flight Number -
Tags Generated
Created
Modified
Stats Distance 78 nm / 144 km
Max Altitude 0 ft / 0 m
Waypoints 2
Social Downloads 3
Likes 0
Share VATSIM

Download

Looking for another format? Having issues loading an existing format? Contact us
Advertisement - Login to hide

Notes

Generated

Route

VTSB VTSP

ID Type Via Altitude Latitude Longitude Leg Dist Tot Dist Heading (true) Name
O VTSB APT - 0 ft / 0 m 9.12283˚ 99.12603˚ - 0 nm - -
O VTSP APT - 0 ft / 0 m 8.11189˚ 98.30327˚ 77 nm 77 nm 219° / 219° -

Altitude Profile

Advertisement - Login to hide

VTSB

Details ICAO VTSB (URT)
Name Surat Thani
Region Thailand
Timezone Asia/Bangkok (UTC+7.0)
Stats Elevation 20 ft / 6 m (AMSL)
Location 9.132603° 99.135586°
Runways 1
Magnetic Variation 0.411° W

METAR

VTSB 181100Z 03010KT 6000 BKN018 OVC100 26/21 Q1013

Decode

TAF

TAF VTSB 180500Z 1806/1906 04012KT 8000 SCT020 TEMPO 1806/1812 04014G24KT 6000 -RA SCT015 BKN100 TEMPO 1821/1903 04014G24KT 6000 -RA SCT015 BKN100

Decode

Departure Runways

ID Width Length Bearing (true) Bearing (mag) Surface Threshold Offset Overrun Length
04 148 ft / 45 m 9,912 ft / 3,021 m 43.98° 44.39° Asphalt 0 ft / 0 m 250 ft / 76 m
22 148 ft / 45 m 9,912 ft / 3,021 m 223.99° 224.40° Asphalt 0 ft / 0 m 230 ft / 70 m

VTSP

Details ICAO VTSP (HKT)
Name Phuket Intl
Region Thailand
Timezone Asia/Bangkok (UTC+7.0)
Stats Elevation 82 ft / 25 m (AMSL)
Location 8.113199° 98.316871°
Runways 1
Magnetic Variation 0.433° W

METAR

VTSP 181100Z 06006KT 330V120 9999 FEW020 27/20 Q1011 NOSIG

Decode

TAF

TAF VTSP 180500Z 1806/1912 08012KT 9999 FEW018 BKN100 TEMPO 1808/1812 VRB15G25KT 3000 TSRA FEW018CB SCT020 BKN100 BECMG 1815/1817 08008KT 8000 BECMG 1902/1904 08012KT 9999

Decode

Destination Runways

ID Width Length Bearing (true) Bearing (mag) Surface Threshold Offset Overrun Length
09 148 ft / 45 m 9,870 ft / 3,008 m 84.45° 84.88° Asphalt 0 ft / 0 m 197 ft / 60 m
27 148 ft / 45 m 9,870 ft / 3,008 m 264.46° 264.89° Asphalt 0 ft / 0 m 197 ft / 60 m

Approach Navaids

Runway Type Ident Frequency Range Bearing (true) Bearing (mag) Slope Elevation
27 Localiser IPKT 109.90 MHz 18 nm / 33 km 263.45° 263.89° - 19 ft / 6 m (AMSL)
27 Glidescope IPKT 109.90 MHz 10 nm / 19 km 263.45° 263.89° 3.20° 82 ft / 25 m (AMSL)
27 DME IPKT 109.90 MHz 18 nm / 33 km - - - 82 ft / 25 m (AMSL)

Popular Alternatives